Time;durP1;ratioP1;P1;durP2;ratioP2;P2;SDS_P1;SDS_P2;PMS_P1;PMS_P2;Temp;Humidity;BMP_temperature;BMP_pressure;BME280_temperature;BME280_humidity;BME280_pressure;Samples;Min_cycle;Max_cycle;Signal;HPM_P1;HPM_P2
2021/03/01 00:00:15;;;;;;;30.33;24.40;;;7.90;99.90;;;8.08;81.67;103385.16;4916222;29;20044;-83
2021/03/01 00:02:43;;;;;;;31.38;23.85;;;8.00;99.90;;;8.10;81.44;103390.50;4916297;29;20056;-83
2021/03/01 00:05:13;;;;;;;33.63;25.67;;;7.90;99.90;;;7.92;81.16;103353.66;4916246;29;20074;-83
2021/03/01 00:07:42;;;;;;;32.40;25.70;;;8.00;99.90;;;8.13;81.30;103386.28;4919982;29;20036;-83
2021/03/01 00:10:12;;;;;;;34.38;26.58;;;8.00;99.90;;;7.87;81.05;103360.47;4919811;29;20135;-83
2021/03/01 00:12:40;;;;;;;;;;;7.90;99.90;;;8.06;81.35;103384.19;4920203;29;20088;-83
2021/03/01 00:15:10;;;;;;;36.53;25.67;;;8.00;99.90;;;8.09;81.24;103389.59;4919886;29;20341;-83
2021/03/01 00:17:39;;;;;;;39.33;28.15;;;8.00;99.90;;;7.91;81.82;103385.22;4919948;29;20051;-84
2021/03/01 00:20:10;;;;;;;35.90;27.67;;;7.80;99.90;;;7.82;81.61;103388.31;4919643;29;20048;-83
2021/03/01 00:22:38;;;;;;;38.73;27.97;;;7.80;99.90;;;7.88;82.30;103388.59;4919985;29;20047;-84
2021/03/01 00:25:07;;;;;;;42.50;29.40;;;7.80;99.90;;;7.93;81.98;103384.47;4902446;29;20084;-83
2021/03/01 00:27:35;;;;;;;42.43;30.97;;;7.80;99.90;;;7.99;81.83;103387.34;4919734;29;20107;-84
2021/03/01 00:30:05;;;;;;;43.67;29.37;;;7.90;99.90;;;7.77;82.26;103384.56;4919548;29;20056;-84
2021/03/01 00:32:32;;;;;;;41.40;30.30;;;7.80;99.90;;;7.80;82.25;103366.25;4902445;29;20059;-83
2021/03/01 00:34:59;;;;;;;41.97;30.58;;;7.80;99.90;;;7.98;82.44;103389.94;4902436;29;20391;-84
2021/03/01 00:37:27;;;;;;;40.33;28.35;;;7.80;99.90;;;7.94;82.03;103386.25;4919225;29;20068;-82
2021/03/01 00:39:54;;;;;;;41.80;30.17;;;7.80;99.90;;;7.82;82.07;103375.13;4919251;29;20068;-84
2021/03/01 00:42:22;;;;;;;40.88;31.25;;;7.80;99.90;;;7.89;82.22;103393.06;4919459;29;20048;-84
2021/03/01 00:44:50;;;;;;;47.10;31.20;;;7.70;99.90;;;7.78;82.07;103380.22;4902305;29;20049;-84
2021/03/01 00:47:18;;;;;;;45.87;32.17;;;7.70;99.90;;;7.32;83.35;103385.88;4919311;29;20044;-85
2021/03/01 00:49:46;;;;;;;45.37;31.57;;;7.40;99.90;;;7.19;84.79;103393.09;4919152;29;20079;-83
2021/03/01 00:52:13;;;;;;;42.73;31.07;;;7.20;99.90;;;7.34;84.76;103385.06;4919029;29;20055;-83
2021/03/01 00:54:42;;;;;;;41.07;31.93;;;7.20;99.90;;;7.13;85.10;103391.06;4902285;29;20206;-83
2021/03/01 00:57:09;;;;;;;47.40;32.07;;;7.10;99.90;;;7.16;85.63;103378.06;4919093;29;20071;-83
2021/03/01 00:59:37;;;;;;;48.77;32.33;;;7.00;99.90;;;6.71;86.30;103381.00;4902165;29;20135;-83
2021/03/01 01:02:09;;;;;;;47.20;33.07;;;6.80;99.90;;;7.01;86.12;103364.13;4902086;29;20439;-84
2021/03/01 01:04:45;;;;;;;47.57;33.07;;;6.90;99.90;;;7.20;86.24;103380.00;4901813;29;20143;-84
2021/03/01 01:07:12;;;;;;;47.80;32.90;;;7.00;99.90;;;7.14;86.27;103378.81;4917711;29;20052;-85
2021/03/01 01:09:39;;;;;;;43.70;32.30;;;7.10;99.90;;;7.11;85.87;103362.88;4901848;29;20052;-84
2021/03/01 01:12:08;;;;;;;45.77;31.87;;;7.10;99.90;;;7.13;86.07;103371.75;4918844;29;20048;-85
2021/03/01 01:14:36;;;;;;;46.20;32.93;;;7.10;99.90;;;7.20;85.91;103379.13;4918683;29;20067;-85
2021/03/01 01:17:05;;;;;;;46.23;33.10;;;7.10;99.90;;;7.20;85.66;103376.50;4900458;29;20087;-85
2021/03/01 01:19:34;;;;;;;46.67;32.33;;;7.10;99.90;;;7.24;85.86;103384.59;4918590;29;20756;-85
2021/03/01 01:22:02;;;;;;;43.63;31.47;;;7.20;99.90;;;7.09;85.63;103354.91;4901782;29;20048;-84
2021/03/01 01:24:29;;;;;;;45.53;32.63;;;7.20;99.90;;;7.30;85.45;103378.72;4918507;29;20056;-82
2021/03/01 01:26:56;;;;;;;42.77;31.47;;;7.20;99.90;;;7.41;85.00;103372.28;4918338;29;20099;-84
2021/03/01 01:29:24;;;;;;;40.83;30.60;;;7.30;99.90;;;7.42;84.93;103374.06;4918395;29;20451;-84
2021/03/01 01:31:51;;;;;;;41.13;30.83;;;7.30;99.90;;;7.11;84.88;103366.41;4901305;29;20107;-83
2021/03/01 01:34:19;;;;;;;39.77;28.70;;;7.20;99.90;;;7.08;85.17;103374.13;4918393;29;20462;-81
2021/03/01 01:36:47;;;;;;;39.53;29.00;;;7.10;99.90;;;7.20;85.02;103371.25;4918229;29;20048;-84
2021/03/01 01:39:14;;;;;;;41.33;29.13;;;7.10;99.90;;;7.14;85.10;103361.28;4918238;29;20099;-81
2021/03/01 01:41:42;;;;;;;40.80;29.27;;;7.10;99.90;;;7.21;85.16;103370.41;4918211;29;20096;-85
2021/03/01 01:44:10;;;;;;;41.33;28.80;;;7.10;99.90;;;7.28;85.11;103370.78;4918134;29;20104;-84
2021/03/01 01:46:37;;;;;;;39.50;29.23;;;7.20;99.90;;;7.26;84.81;103372.41;4901358;29;20094;-84
2021/03/01 01:49:05;;;;;;;36.43;28.37;;;7.20;99.90;;;7.13;84.94;103363.84;4901129;29;20055;-84
2021/03/01 01:51:32;;;;;;;38.57;27.73;;;7.10;99.90;;;7.02;84.74;103328.22;4918061;29;20032;-84
2021/03/01 01:54:02;;;;;;;38.43;28.63;;;7.10;99.90;;;7.24;84.31;103358.28;4917925;29;20103;-85
2021/03/01 01:56:30;;;;;;;38.03;29.10;;;7.10;99.90;;;7.23;84.29;103356.50;4917833;29;20052;-84
2021/03/01 01:58:57;;;;;;;37.17;28.00;;;7.10;99.90;;;7.27;84.35;103363.72;4917829;29;20068;-84
2021/03/01 02:01:24;;;;;;;37.37;28.30;;;7.20;99.90;;;7.29;84.29;103359.44;4900886;29;20048;-84
2021/03/01 02:04:00;;;;;;;38.27;28.27;;;7.20;99.90;;;7.33;84.17;103347.31;4900838;29;20051;-84
2021/03/01 02:06:45;;;;;;;36.57;27.27;;;7.30;99.90;;;7.42;83.59;103344.19;4917923;29;20040;-84
2021/03/01 02:09:47;;;;;;;38.03;27.97;;;7.30;99.90;;;7.48;83.44;103350.66;4917883;29;20048;-84
2021/03/01 02:12:21;;;;;;;40.67;26.20;;;7.40;99.90;;;7.29;83.09;103345.34;4917864;29;20127;-86
2021/03/01 02:15:02;;;;;;;39.40;28.40;;;7.30;99.90;;;7.06;84.27;103341.59;4917946;29;20055;-84
2021/03/01 02:17:29;;;;;;;36.53;27.48;;;7.10;99.90;;;7.08;84.48;103346.94;4917697;29;20501;-85
2021/03/01 02:19:57;;;;;;;46.27;31.00;;;7.00;99.90;;;6.81;85.06;103349.09;4917728;29;20150;-85
2021/03/01 02:22:27;;;;;;;51.77;29.93;;;6.80;99.90;;;6.71;85.80;103344.19;4917557;29;20468;-84
2021/03/01 02:25:00;;;;;;;42.93;28.50;;;6.70;99.90;;;6.51;85.54;103307.16;4917536;29;20100;-85
2021/03/01 02:27:32;;;;;;;44.97;28.47;;;6.70;99.90;;;6.03;86.64;103334.44;4900376;29;20064;-85
2021/03/01 02:30:04;;;;;;;44.87;29.47;;;6.20;99.90;;;5.80;87.17;103334.88;4916955;29;20487;-84
2021/03/01 02:32:35;;;;;;;43.33;31.37;;;5.90;99.90;;;5.78;88.89;103331.28;4917381;29;20470;-86
2021/03/01 02:35:07;;;;;;;43.33;30.00;;;5.80;99.90;;;6.02;88.65;103333.53;4917624;29;20054;-84
2021/03/01 02:37:40;;;;;;;43.20;29.83;;;5.90;99.90;;;6.24;88.17;103323.34;4917350;29;20055;-84
2021/03/01 02:40:10;;;;;;;36.63;27.03;;;6.10;99.90;;;6.39;87.96;103334.63;4900535;29;20063;-84
2021/03/01 02:42:39;;;;;;;46.03;28.52;;;6.20;99.90;;;6.43;87.33;103324.31;4900077;29;20048;-85
2021/03/01 02:45:08;;;;;;;39.30;27.40;;;6.40;99.90;;;6.46;86.87;103328.00;4900260;29;20044;-84
2021/03/01 02:47:36;;;;;;;80.27;28.93;;;6.40;99.90;;;6.39;86.41;103326.75;4917019;29;20107;-85
2021/03/01 02:50:07;;;;;;;52.03;30.37;;;6.40;99.90;;;5.99;86.53;103238.81;4917099;29;20044;-85
2021/03/01 02:52:36;;;;;;;41.22;27.55;;;6.40;99.90;;;6.35;86.81;103324.78;4899968;29;20052;-84
2021/03/01 02:55:05;;;;;;;36.90;27.92;;;6.30;99.90;;;6.51;86.49;103336.09;4916838;29;20502;-81
2021/03/01 02:57:34;;;;;;;70.00;30.83;;;6.40;99.90;;;6.31;86.19;103338.59;4916963;29;20044;-85
2021/03/01 03:00:09;;;;;;;75.83;30.47;;;6.40;99.90;;;5.73;87.38;103332.75;4917020;29;20051;-85
2021/03/01 03:02:38;;;;;;;44.93;30.00;;;5.90;99.90;;;5.76;87.97;103311.91;4916688;29;20458;-85
2021/03/01 03:05:08;;;;;;;64.15;29.48;;;5.90;99.90;;;5.98;88.05;103344.69;4916801;29;20490;-85
2021/03/01 03:07:40;;;;;;;42.63;30.10;;;5.90;99.90;;;6.07;88.29;103353.06;4916651;29;20526;-83
2021/03/01 03:10:10;;;;;;;42.87;30.43;;;5.90;99.90;;;6.28;87.85;103348.97;4916891;29;20044;-84
2021/03/01 03:12:41;;;;;;;45.15;31.40;;;6.10;99.90;;;6.38;87.77;103352.97;4899943;29;20060;-84
2021/03/01 03:15:19;;;;;;;46.10;30.00;;;6.30;99.90;;;6.27;87.58;103346.25;4916718;29;20060;-84
2021/03/01 03:17:49;;;;;;;48.67;30.83;;;6.20;99.90;;;6.32;87.44;103318.47;4916720;29;20406;-81
2021/03/01 03:20:17;;;;;;;60.37;30.63;;;6.30;99.90;;;6.25;87.42;103338.25;4916548;29;20099;-86
2021/03/01 03:22:45;;;;;;;43.47;29.33;;;6.20;99.90;;;6.33;87.53;103344.84;4916515;29;20649;-85
2021/03/01 03:25:13;;;;;;;50.80;32.33;;;6.30;99.90;;;5.92;88.17;103331.22;4916528;29;20427;-85
2021/03/01 03:27:41;;;;;;;51.10;31.60;;;6.00;99.90;;;6.10;88.29;103337.47;4916501;29;20044;-85
2021/03/01 03:30:12;;;;;;;55.10;33.80;;;6.00;99.90;;;6.22;88.21;103332.84;4899479;29;20525;-84
2021/03/01 03:32:40;;;;;;;50.13;33.03;;;6.20;99.90;;;5.92;88.78;103325.09;4916402;29;20091;-84
2021/03/01 03:35:10;;;;;;;49.80;34.23;;;6.00;99.90;;;6.24;88.68;103330.31;4916418;29;20051;-84
2021/03/01 03:37:42;;;;;;;55.55;33.58;;;6.10;99.90;;;6.19;88.52;103322.16;4899679;29;20115;-84
2021/03/01 03:40:13;;;;;;;50.37;33.50;;;6.20;99.90;;;6.23;88.19;103318.88;4916441;29;20069;-84
2021/03/01 03:42:42;;;;;;;53.97;33.80;;;6.20;99.90;;;6.37;88.12;103327.50;4920447;29;20127;-85
2021/03/01 03:45:12;;;;;;;50.40;34.23;;;6.30;99.90;;;6.20;88.22;103330.97;4903174;29;20586;-84
2021/03/01 03:47:43;;;;;;;57.70;35.13;;;6.20;99.90;;;5.38;87.98;103200.47;4903548;29;20083;-84
2021/03/01 03:50:13;;;;;;;58.00;36.00;;;6.10;99.90;;;5.93;88.77;103329.50;4920354;29;20095;-85
2021/03/01 03:52:46;;;;;;;58.53;36.00;;;5.90;99.90;;;5.92;89.67;103325.97;4920246;29;20054;-85
2021/03/01 03:55:19;;;;;;;59.07;36.77;;;5.90;99.90;;;5.92;89.43;103304.94;4920196;29;20055;-84
2021/03/01 03:57:55;;;;;;;60.23;36.67;;;5.90;99.90;;;5.78;89.34;103321.69;4920004;29;20055;-85
2021/03/01 04:00:26;;;;;;;59.07;37.47;;;5.80;99.90;;;5.75;89.83;103316.22;4920062;29;20048;-85
2021/03/01 04:02:57;;;;;;;61.57;36.93;;;5.70;99.90;;;5.76;89.52;103322.41;4919934;29;20399;-85
2021/03/01 04:05:28;;;;;;;58.90;36.00;;;5.70;99.90;;;5.37;90.68;103321.09;4919994;29;20075;-86
2021/03/01 04:07:58;;;;;;;63.10;37.13;;;5.40;99.90;;;5.33;91.68;103325.28;4919931;29;20107;-83
2021/03/01 04:10:30;;;;;;;60.03;36.72;;;5.30;99.90;;;5.33;92.69;103300.75;4919754;29;20048;-85
2021/03/01 04:13:01;;;;;;;60.40;36.13;;;5.20;99.90;;;5.34;91.99;103289.47;4920270;29;20048;-86
2021/03/01 04:15:29;;;;;;;;;;;5.40;99.90;;;5.19;92.35;103314.81;4903413;29;20513;-86
2021/03/01 04:17:58;;;;;;;64.73;38.07;;;5.20;99.90;;;5.12;93.09;103320.53;4919792;29;19958;-85
2021/03/01 04:20:27;;;;;;;62.50;37.27;;;5.10;99.90;;;5.03;93.93;103312.16;4919630;29;20115;-83
2021/03/01 04:22:58;;;;;;;74.37;42.13;;;5.00;99.90;;;5.13;94.25;103319.75;4919538;29;20123;-86
2021/03/01 04:25:26;;;;;;;68.87;39.17;;;5.10;99.90;;;5.28;93.98;103310.13;4919785;29;20048;-87
2021/03/01 04:27:55;;;;;;;60.73;36.13;;;5.20;99.90;;;5.38;93.46;103321.19;4919501;29;20111;-86
2021/03/01 04:30:24;;;;;;;63.00;35.93;;;5.30;99.90;;;5.14;93.29;103327.69;4919534;29;20075;-85
2021/03/01 04:32:53;;;;;;;59.97;34.47;;;5.10;99.90;;;5.13;93.84;103317.13;4919459;29;20100;-85
2021/03/01 04:35:21;;;;;;;62.60;36.47;;;5.10;99.90;;;5.43;93.14;103313.59;4919290;29;20047;-86
2021/03/01 04:37:48;;;;;;;60.07;34.40;;;5.30;99.90;;;5.27;92.16;103295.16;4919421;29;20055;-82
2021/03/01 04:40:16;;;;;;;57.37;34.17;;;5.40;99.90;;;5.71;92.43;103330.00;4919554;29;20040;-86
2021/03/01 04:42:47;;;;;;;55.50;33.00;;;5.60;99.90;;;5.73;91.52;103325.75;4902429;29;20186;-85
2021/03/01 04:45:17;;;;;;;58.78;33.63;;;5.60;99.90;;;5.15;91.76;103333.84;4919341;29;20048;-85
2021/03/01 04:47:48;;;;;;;60.33;33.92;;;5.30;99.90;;;4.99;93.16;103320.66;4902193;29;20525;-85
2021/03/01 04:50:18;;;;;;;61.27;34.60;;;5.00;99.90;;;5.11;93.59;103332.75;4919282;29;20439;-85
2021/03/01 04:52:47;;;;;;;62.90;36.30;;;5.00;99.90;;;5.07;93.82;103283.56;4918954;29;20418;-84
2021/03/01 04:55:16;;;;;;;64.83;35.77;;;5.20;99.90;;;5.41;92.88;103320.47;4902247;29;20079;-85
2021/03/01 04:57:45;;;;;;;60.10;35.57;;;5.30;99.90;;;5.47;92.32;103324.34;4918969;29;20052;-81
2021/03/01 05:00:14;;;;;;;59.20;34.73;;;5.50;99.90;;;5.55;91.76;103316.91;4918877;29;20092;-86
2021/03/01 05:02:42;;;;;;;57.40;34.10;;;5.50;99.90;;;5.70;91.89;103333.47;4918900;29;20064;-85
2021/03/01 05:05:11;;;;;;;56.33;34.20;;;5.60;99.90;;;5.22;92.18;103333.38;4918863;29;20055;-80
2021/03/01 05:07:40;;;;;;;60.13;34.10;;;5.30;99.90;;;5.05;93.22;103319.28;4901921;29;20043;-78
2021/03/01 05:10:11;;;;;;;59.27;35.17;;;5.10;99.90;;;4.84;94.36;103328.53;4918692;29;20044;-77
2021/03/01 05:12:38;;;;;;;58.72;34.72;;;4.90;99.90;;;5.04;94.63;103327.97;4918779;29;20443;-81
2021/03/01 05:15:08;;;;;;;52.13;31.13;;;4.90;99.90;;;5.12;93.62;103310.06;4918654;29;20041;-81
2021/03/01 05:17:38;;;;;;;52.15;31.45;;;5.10;99.90;;;5.08;92.71;103315.94;4918812;29;20048;-80
2021/03/01 05:20:08;;;;;;;56.63;33.03;;;5.10;99.90;;;5.12;92.23;103318.84;4901766;29;20052;-76
2021/03/01 05:22:36;;;;;;;53.30;30.17;;;5.10;99.90;;;5.00;92.39;103312.88;4918626;29;20051;-75
2021/03/01 05:25:04;;;;;;;49.40;30.53;;;5.00;99.90;;;5.04;93.41;103311.34;4918505;29;20111;-77
2021/03/01 05:27:33;;;;;;;51.90;31.03;;;5.00;99.90;;;4.90;93.05;103276.44;4918637;29;20194;-78
2021/03/01 05:30:04;;;;;;;52.77;32.23;;;5.00;99.90;;;5.20;92.82;103290.41;4918332;29;20072;-76
2021/03/01 05:32:32;;;;;;;54.73;31.93;;;5.20;99.90;;;5.10;92.16;103315.22;4918445;29;20055;-77
2021/03/01 05:35:00;;;;;;;51.67;32.17;;;5.20;99.90;;;5.13;92.48;103309.25;4918386;29;20402;-79
2021/03/01 05:37:27;;;;;;;49.03;30.97;;;5.10;99.90;;;5.24;91.86;103308.13;4918265;29;20052;-78
2021/03/01 05:39:55;;;;;;;53.83;31.90;;;5.20;99.90;;;5.43;91.24;103313.59;4918242;29;20076;-79
2021/03/01 05:42:26;;;;;;;50.80;30.97;;;5.40;99.90;;;5.35;90.73;103307.00;4918187;29;20458;-78
2021/03/01 05:44:55;;;;;;;48.00;29.37;;;5.40;99.90;;;5.44;90.33;103308.41;4918197;29;20048;-80
2021/03/01 05:47:23;;;;;;;53.53;31.43;;;5.40;99.90;;;5.19;90.08;103312.19;4918219;29;20502;-77
2021/03/01 05:49:52;;;;;;;50.87;32.37;;;5.30;99.90;;;4.81;91.04;103283.81;4918012;29;20394;-73
2021/03/01 05:52:21;;;;;;;54.47;31.73;;;5.00;99.90;;;5.04;91.93;103332.31;4900921;29;20048;-81
2021/03/01 05:54:49;;;;;;;50.33;31.30;;;5.00;99.90;;;4.96;91.67;103299.50;4917999;29;20458;-81
2021/03/01 05:57:18;;;;;;;53.03;32.60;;;4.90;99.90;;;5.13;92.32;103314.50;4917881;29;20044;-81
2021/03/01 05:59:48;;;;;;;47.47;31.53;;;5.00;99.90;;;5.01;92.74;103313.78;4901116;29;20057;-81
2021/03/01 06:02:17;;;;;;;53.47;32.57;;;5.00;99.90;;;5.06;92.71;103307.09;4918029;29;20509;-81
2021/03/01 06:04:45;;;;;;;52.40;31.70;;;4.90;99.90;;;5.26;92.11;103296.91;4900157;29;20060;-81
2021/03/01 06:07:13;;;;;;;51.40;31.30;;;5.10;99.90;;;5.48;92.11;103306.84;4900991;29;20112;-81
2021/03/01 06:09:41;;;;;;;53.83;31.13;;;5.30;99.90;;;5.39;91.36;103304.63;4917855;29;20044;-81
2021/03/01 06:12:09;;;;;;;53.70;31.97;;;5.40;99.90;;;5.27;91.60;103306.56;4917692;29;20052;-78
2021/03/01 06:14:36;;;;;;;50.73;31.20;;;5.30;99.90;;;5.49;92.08;103295.56;4917622;29;20079;-81
2021/03/01 06:17:16;;;;;;;52.73;32.90;;;5.30;99.90;;;5.72;90.77;103289.84;4900614;29;20064;-80
2021/03/01 06:19:47;;;;;;;52.63;30.80;;;5.60;99.90;;;5.68;90.12;103308.84;4917810;29;20509;-81
2021/03/01 06:22:15;;;;;;;58.88;33.53;;;5.60;99.90;;;5.16;89.40;103312.94;4917595;29;20469;-78
2021/03/01 06:24:43;;;;;;;53.97;33.93;;;5.30;99.90;;;5.44;90.58;103297.00;4917480;29;20131;-81
2021/03/01 06:27:12;;;;;;;53.07;32.63;;;5.40;99.90;;;5.16;90.55;103309.41;4917370;29;20052;-81
2021/03/01 06:30:05;;;;;;;50.67;31.93;;;5.20;99.90;;;4.93;91.65;103313.38;4917338;29;20052;-79
2021/03/01 06:32:33;;;;;;;58.87;34.20;;;4.90;99.90;;;4.96;91.96;103305.66;4895732;29;20427;-81
2021/03/01 06:35:01;;;;;;;57.03;33.40;;;4.90;99.90;;;4.85;92.25;103296.28;4917158;29;20051;-80
2021/03/01 06:37:29;;;;;;;59.10;36.17;;;4.90;99.90;;;4.98;92.97;103305.72;4900270;29;20470;-80
2021/03/01 06:39:57;;;;;;;62.60;35.57;;;4.90;99.90;;;5.17;92.17;103309.50;4916961;29;20044;-80
2021/03/01 06:42:27;;;;;;;61.43;36.30;;;5.10;99.90;;;5.08;92.25;103300.19;4917753;29;20052;-80
2021/03/01 06:45:12;;;;;;;;;;;5.10;99.90;;;5.05;92.14;103300.03;4917788;29;20115;-81
2021/03/01 06:47:49;;;;;;;63.40;36.03;;;5.00;99.90;;;5.25;92.08;103267.94;4917023;29;19927;-81
2021/03/01 06:50:33;;;;;;;61.37;34.73;;;5.30;99.90;;;5.49;91.16;103301.72;4916902;29;20096;-80
2021/03/01 06:53:14;;;;;;;63.70;36.20;;;5.50;99.90;;;5.64;90.78;103300.72;4916745;29;20729;-83
2021/03/01 06:56:00;;;;;;;60.60;36.40;;;5.50;99.90;;;5.64;90.07;103312.13;4917101;29;20088;-81
2021/03/01 06:58:29;;;;;;;64.53;36.20;;;5.60;99.90;;;5.52;90.14;103311.44;4916814;29;20048;-80
2021/03/01 07:01:09;;;;;;;57.43;34.63;;;5.50;99.90;;;5.66;90.15;103318.38;4916811;29;20082;-80
2021/03/01 07:03:38;;;;;;;60.53;34.73;;;5.60;99.90;;;5.36;90.16;103319.31;4917093;29;20094;-80
2021/03/01 07:06:08;;;;;;;60.67;35.07;;;5.50;99.90;;;5.30;90.92;103353.97;4916914;29;20040;-81
2021/03/01 07:08:45;;;;;;;57.60;34.07;;;5.30;99.90;;;5.30;91.94;103318.97;4899824;29;20067;-80
2021/03/01 07:11:28;;;;;;;63.90;37.43;;;5.20;99.90;;;5.02;91.95;103320.84;4916702;29;20044;-80
2021/03/01 07:14:00;;;;;;;71.03;38.47;;;5.10;99.90;;;4.84;93.55;103319.78;4916637;29;20052;-80
2021/03/01 07:16:28;;;;;;;63.10;35.00;;;4.80;99.90;;;4.74;93.78;103323.59;4916647;29;20099;-81
2021/03/01 07:18:56;;;;;;;68.50;37.70;;;4.70;99.90;;;4.74;94.85;103288.59;4916620;29;20032;-80
2021/03/01 07:21:23;;;;;;;73.17;39.47;;;4.80;99.90;;;4.77;94.87;103329.00;4916600;29;20052;-78
2021/03/01 07:23:53;;;;;;;66.30;36.30;;;4.80;99.90;;;3.97;95.32;103216.78;4916591;29;20062;-81
2021/03/01 07:26:26;;;;;;;71.13;37.38;;;4.60;99.90;;;4.45;96.28;103328.84;4916318;29;20040;-80
2021/03/01 07:29:02;;;;;;;69.13;35.27;;;4.40;99.90;;;4.35;96.74;103322.16;4916419;29;20048;-78
2021/03/01 07:31:36;;;;;;;79.63;38.80;;;4.40;99.90;;;3.67;97.42;103186.16;4916381;29;20047;-81
2021/03/01 07:34:06;;;;;;;72.23;37.93;;;4.40;99.90;;;4.76;97.02;103321.06;4916765;29;20051;-81
2021/03/01 07:36:34;;;;;;;71.93;38.33;;;4.60;99.90;;;5.05;96.62;103324.53;4916260;29;20052;-81
2021/03/01 07:39:07;;;;;;;74.87;39.37;;;4.90;99.90;;;5.30;95.53;103332.09;4916604;29;20044;-82
2021/03/01 07:41:35;;;;;;;74.17;39.20;;;5.20;99.90;;;5.04;94.60;103311.34;4916291;29;20537;-81
2021/03/01 07:44:05;;;;;;;77.27;38.07;;;5.20;99.90;;;4.85;94.58;103329.44;4916288;29;20055;-80
2021/03/01 07:46:35;;;;;;;80.93;39.90;;;4.90;99.90;;;4.88;95.46;103324.41;4916330;29;20411;-81
2021/03/01 07:49:04;;;;;;;80.07;41.47;;;4.90;99.90;;;5.13;95.18;103323.25;4916319;29;20048;-81
2021/03/01 07:51:49;;;;;;;79.50;40.43;;;5.00;99.90;;;5.21;94.54;103327.22;4916242;29;20116;-81
2021/03/01 07:54:18;;;;;;;75.20;39.83;;;5.20;99.90;;;5.20;94.42;103324.50;4899723;29;20056;-81
2021/03/01 07:56:51;;;;;;;81.37;41.93;;;5.20;99.90;;;5.10;94.23;103344.06;4916245;29;20480;-78
2021/03/01 07:59:29;;;;;;;82.97;41.27;;;5.10;99.90;;;5.16;95.32;103327.78;4899261;29;20084;-81
2021/03/01 08:02:25;;;;;;;88.73;43.73;;;5.10;99.90;;;5.28;95.47;103331.97;4916004;29;20066;-80
2021/03/01 08:04:54;;;;;;;83.93;41.80;;;5.20;99.90;;;5.06;94.84;103325.44;4916231;29;20451;-80
2021/03/01 08:07:40;;;;;;;80.37;42.17;;;5.10;99.90;;;5.30;94.94;103335.59;4916033;29;20051;-79
2021/03/01 08:10:11;;;;;;;84.37;41.93;;;5.20;99.90;;;5.14;95.61;103327.69;4915970;29;20123;-79
2021/03/01 08:13:00;;;;;;;85.53;42.47;;;5.10;99.90;;;5.39;95.14;103314.22;4916149;29;20044;-81
2021/03/01 08:15:40;;;;;;;83.87;39.97;;;5.40;99.90;;;4.82;94.53;103305.69;4916110;29;20115;-81
2021/03/01 08:18:11;;;;;;;84.07;40.92;;;5.10;99.90;;;4.87;95.74;103328.75;4899224;29;20327;-80
2021/03/01 08:20:43;;;;;;;;;;;4.90;99.90;;;5.06;95.78;103323.72;4916547;29;20040;-80
2021/03/01 08:23:20;;;;;;;82.70;40.47;;;5.00;99.90;;;5.32;95.03;103338.34;4916260;29;19962;-81
2021/03/01 08:26:06;;;;;;;86.40;42.63;;;5.20;99.90;;;5.16;94.85;103335.66;4916149;29;20067;-81
2021/03/01 08:28:51;;;;;;;83.53;41.73;;;5.10;99.90;;;5.49;94.61;103313.94;4919636;29;20056;-79
2021/03/01 08:31:46;;;;;;;82.80;41.27;;;5.40;99.90;;;5.70;93.55;103333.47;4919464;29;20055;-80
2021/03/01 08:34:34;;;;;;;74.43;40.37;;;5.60;99.90;;;5.59;92.30;103305.75;4902564;29;20056;-79
2021/03/01 08:37:06;;;;;;;83.97;40.90;;;5.70;99.90;;;5.63;92.16;103302.47;4919337;29;20048;-81
2021/03/01 08:40:01;;;;;;;82.97;40.60;;;5.70;99.90;;;5.07;93.38;103336.00;4902350;29;20048;-82
2021/03/01 08:42:59;;;;;;;84.93;42.50;;;5.20;99.90;;;5.26;94.33;103344.16;4919416;29;20108;-81
2021/03/01 08:45:39;;;;;;;80.77;39.93;;;5.20;99.90;;;5.06;95.05;103354.28;4919025;29;20044;-81
2021/03/01 08:48:10;;;;;;;78.53;38.67;;;5.00;99.90;;;3.99;95.54;103216.91;4919245;29;20048;-82
2021/03/01 08:50:40;;;;;;;76.47;39.87;;;4.80;99.90;;;4.92;96.59;103376.19;4902313;29;20051;-82
2021/03/01 08:53:19;;;;;;;81.60;41.20;;;4.80;99.90;;;5.09;96.38;103336.13;4919011;29;20490;-81
2021/03/01 08:55:47;;;;;;;80.73;40.20;;;4.90;99.90;;;4.95;95.91;103340.56;4919018;29;20044;-81
2021/03/01 08:58:16;;;;;;;77.43;39.10;;;4.90;99.90;;;4.95;96.69;103337.03;4919141;29;20048;-81
2021/03/01 09:00:53;;;;;;;84.70;42.07;;;4.80;99.90;;;4.99;96.59;103337.31;4918988;29;20115;-80
2021/03/01 09:03:27;;;;;;;84.77;40.93;;;4.90;99.90;;;5.04;96.31;103341.09;4918725;29;20150;-80
2021/03/01 09:06:03;;;;;;;78.63;41.00;;;5.00;99.90;;;5.27;96.14;103342.41;4918943;29;20410;-80
2021/03/01 09:08:34;;;;;;;74.00;37.17;;;5.20;99.90;;;5.48;95.35;103347.13;4901774;29;20399;-79
2021/03/01 09:11:05;;;;;;;84.87;40.47;;;5.40;99.90;;;5.37;94.56;103353.50;4918888;29;20044;-81
2021/03/01 09:13:36;;;;;;;78.13;40.63;;;5.40;99.90;;;5.39;94.81;103350.97;4918796;29;20044;-80
2021/03/01 09:16:06;;;;;;;76.57;41.23;;;5.30;99.90;;;5.47;94.88;103345.34;4918739;29;20554;-80
2021/03/01 09:18:35;;;;;;;75.65;40.38;;;5.40;99.90;;;5.56;94.22;103354.53;4918681;29;20409;-81
2021/03/01 09:21:04;;;;;;;75.20;40.97;;;5.50;99.90;;;5.79;93.77;103339.22;4918556;29;20139;-80
2021/03/01 09:23:46;;;;;;;78.00;40.20;;;5.70;99.90;;;5.60;93.13;103340.75;4918542;29;20525;-79
2021/03/01 09:26:25;;;;;;;75.33;38.07;;;5.60;99.90;;;5.10;93.97;103345.78;4901531;29;20055;-80
2021/03/01 09:28:55;;;;;;;69.67;36.90;;;5.20;99.90;;;5.05;94.62;103344.63;4918553;29;20064;-80
2021/03/01 09:31:31;;;;;;;63.40;33.53;;;5.10;99.90;;;5.09;95.26;103344.00;4918295;29;20048;-82
2021/03/01 09:33:59;;;;;;;70.53;36.07;;;5.10;99.90;;;5.05;95.00;103344.63;4918207;29;20507;-81
2021/03/01 09:36:31;;;;;;;76.43;38.07;;;5.00;99.90;;;4.83;94.85;103329.38;4901415;29;20048;-81
2021/03/01 09:39:00;;;;;;;71.10;37.53;;;4.90;99.90;;;4.75;95.60;103334.97;4900326;29;20067;-82
2021/03/01 09:41:47;;;;;;;73.17;36.03;;;4.90;99.90;;;4.74;96.31;103344.56;4918236;29;20486;-82
2021/03/01 09:44:24;;;;;;;69.73;37.93;;;4.80;99.90;;;4.99;96.77;103349.53;4918396;29;20047;-81
2021/03/01 09:46:54;;;;;;;71.87;38.00;;;4.80;99.90;;;4.97;96.96;103333.69;4901365;29;20052;-82
2021/03/01 09:49:22;;;;;;;71.50;36.25;;;4.90;99.90;;;4.65;96.05;103311.66;4918212;29;20112;-82
2021/03/01 09:51:51;;;;;;;72.47;37.23;;;4.80;99.90;;;4.69;96.22;103329.38;4917912;29;20490;-81
2021/03/01 09:54:22;;;;;;;67.53;37.17;;;4.80;99.90;;;4.74;96.59;103341.03;4917958;29;20060;-81
2021/03/01 09:56:54;;;;;;;76.53;37.77;;;4.70;99.90;;;4.87;97.14;103344.47;4918221;29;20044;-81
2021/03/01 09:59:32;;;;;;;76.07;39.90;;;4.80;99.90;;;5.03;96.79;103339.28;4918274;29;20078;-81
2021/03/01 10:02:11;;;;;;;74.63;38.27;;;4.90;99.90;;;5.01;97.18;103343.56;4900891;29;20515;-81
2021/03/01 10:04:40;;;;;;;68.80;37.37;;;4.90;99.90;;;4.99;96.49;103325.91;4917793;29;20055;-81
2021/03/01 10:07:24;;;;;;;71.43;39.05;;;5.00;99.90;;;4.95;96.22;103324.84;4900970;29;20060;-81
2021/03/01 10:09:53;;;;;;;74.13;40.80;;;4.90;99.90;;;5.26;96.28;103323.16;4917903;29;20048;-81
2021/03/01 10:12:22;;;;;;;72.77;38.57;;;5.10;99.90;;;5.36;95.70;103324.56;4917734;29;20052;-81
2021/03/01 10:14:56;;;;;;;71.97;40.63;;;5.30;99.90;;;5.39;95.78;103316.84;4917465;29;20055;-81
2021/03/01 10:17:28;;;;;;;73.17;40.67;;;5.30;99.90;;;5.52;94.93;103332.44;4900863;29;20056;-82
2021/03/01 10:20:06;;;;;;;75.37;39.37;;;5.50;99.90;;;5.47;95.46;103324.34;4917509;29;20467;-81
2021/03/01 10:22:59;;;;;;;66.63;34.53;;;5.40;99.90;;;4.78;95.23;103329.91;4900585;29;20052;-80
2021/03/01 10:25:33;;;;;;;64.83;35.57;;;4.90;99.90;;;5.31;96.06;103331.25;4917443;29;20052;-81
2021/03/01 10:28:01;;;;;;;69.73;37.57;;;5.10;99.90;;;5.36;94.86;103325.44;4917652;29;20090;-81
2021/03/01 10:30:29;;;;;;;66.03;37.73;;;5.30;99.90;;;5.68;94.02;103324.63;4917331;29;20458;-81